Time,TemperatureF,DewpointF,PressureIn,WindDirection,WindDirectionDegrees,WindSpeedMPH,WindSpeedGustMPH,Humidity,HourlyPrecipIn,Conditions,Clouds,dailyrainin,SoftwareType,DateUTC
2013-02-21 00:01:00,36.0,24.0,-100.00,North,-999,-999.0,-999.0,61,-99.99,,,-99.99,,2013-02-21 08:01:00,
2013-02-21 00:11:00,36.0,24.0,-100.00,North,-999,-999.0,-999.0,61,-99.99,,,-99.99,,2013-02-21 08:11:00,
2013-02-21 00:21:00,29.0,24.0,-100.00,North,-999,-999.0,-999.0,81,-99.99,,,-99.99,,2013-02-21 08:21:00,
2013-02-21 00:31:00,29.0,24.0,-100.00,North,-999,-999.0,-999.0,81,-99.99,,,-99.99,,2013-02-21 08:31:00,
2013-02-21 00:42:00,29.0,24.0,-100.00,North,-999,-999.0,-999.0,81,-99.99,,,-99.99,,2013-02-21 08:42:00,
2013-02-21 00:52:00,29.0,24.0,-100.00,North,-999,-999.0,-999.0,81,-99.99,,,-99.99,,2013-02-21 08:52:00,
2013-02-21 01:01:00,29.0,24.0,-100.00,North,-999,-999.0,-999.0,81,-99.99,,,-99.99,,2013-02-21 09:01:00,
2013-02-21 01:11:00,29.0,24.0,-100.00,North,-999,-999.0,-999.0,81,-99.99,,,-99.99,,2013-02-21 09:11:00,
2013-02-21 01:22:00,29.0,24.0,-100.00,North,-999,-999.0,-999.0,81,-99.99,,,-99.99,,2013-02-21 09:22:00,
2013-02-21 01:31:00,27.0,23.0,-100.00,North,-999,-999.0,-999.0,84,-99.99,,,-99.99,,2013-02-21 09:31:00,
2013-02-21 01:42:00,27.0,23.0,-100.00,North,-999,-999.0,-999.0,84,-99.99,,,-99.99,,2013-02-21 09:42:00,
2013-02-21 01:52:00,27.0,23.0,-100.00,North,-999,-999.0,-999.0,84,-99.99,,,-99.99,,2013-02-21 09:52:00,
2013-02-21 02:01:00,24.0,22.0,-100.00,North,-999,-999.0,-999.0,93,-99.99,,,-99.99,,2013-02-21 10:01:00,
2013-02-21 02:11:00,24.0,22.0,-100.00,North,-999,-999.0,-999.0,93,-99.99,,,-99.99,,2013-02-21 10:11:00,
2013-02-21 02:21:00,24.0,22.0,-100.00,North,-999,-999.0,-999.0,93,-99.99,,,-99.99,,2013-02-21 10:21:00,
2013-02-21 02:31:00,24.0,22.0,-100.00,North,-999,-999.0,-999.0,93,-99.99,,,-99.99,,2013-02-21 10:31:00,
2013-02-21 02:51:00,24.0,22.0,-100.00,North,-999,-999.0,-999.0,90,-99.99,,,-99.99,,2013-02-21 10:51:00,
2013-02-21 03:01:00,24.0,22.0,-100.00,North,-999,-999.0,-999.0,90,-99.99,,,-99.99,,2013-02-21 11:01:00,
2013-02-21 03:11:00,24.0,22.0,-100.00,North,-999,-999.0,-999.0,90,-99.99,,,-99.99,,2013-02-21 11:11:00,
2013-02-21 03:21:00,24.0,22.0,-100.00,North,-999,-999.0,-999.0,90,-99.99,,,-99.99,,2013-02-21 11:21:00,
2013-02-21 03:31:00,23.0,21.0,-100.00,North,-999,-999.0,-999.0,92,-99.99,,,-99.99,,2013-02-21 11:31:00,
2013-02-21 03:41:00,23.0,21.0,-100.00,North,-999,-999.0,-999.0,92,-99.99,,,-99.99,,2013-02-21 11:41:00,
2013-02-21 03:51:00,23.0,21.0,-100.00,North,-999,-999.0,-999.0,92,-99.99,,,-99.99,,2013-02-21 11:51:00,
2013-02-21 04:01:00,23.0,22.0,-100.00,North,-999,-999.0,-999.0,94,-99.99,,,-99.99,,2013-02-21 12:01:00,
2013-02-21 04:11:00,23.0,22.0,-100.00,North,-999,-999.0,-999.0,94,-99.99,,,-99.99,,2013-02-21 12:11:00,
2013-02-21 04:21:00,23.0,22.0,-100.00,North,-999,-999.0,-999.0,94,-99.99,,,-99.99,,2013-02-21 12:21:00,
2013-02-21 04:32:00,23.0,22.0,-100.00,North,-999,-999.0,-999.0,94,-99.99,,,-99.99,,2013-02-21 12:32:00,
2013-02-21 04:43:00,23.0,22.0,-100.00,North,-999,-999.0,-999.0,94,-99.99,,,-99.99,,2013-02-21 12:43:00,
2013-02-21 04:52:00,23.0,22.0,-100.00,North,-999,-999.0,-999.0,94,-99.99,,,-99.99,,2013-02-21 12:52:00,
2013-02-21 05:01:00,21.0,20.0,-100.00,North,-999,-999.0,-999.0,95,-99.99,,,-99.99,,2013-02-21 13:01:00,
2013-02-21 05:12:00,21.0,20.0,-100.00,North,-999,-999.0,-999.0,95,-99.99,,,-99.99,,2013-02-21 13:12:00,
2013-02-21 05:22:00,21.0,20.0,-100.00,North,-999,-999.0,-999.0,95,-99.99,,,-99.99,,2013-02-21 13:22:00,
2013-02-21 05:31:00,20.0,19.0,-100.00,North,-999,-999.0,-999.0,97,-99.99,,,-99.99,,2013-02-21 13:31:00,
2013-02-21 05:42:00,20.0,19.0,-100.00,North,-999,-999.0,-999.0,97,-99.99,,,-99.99,,2013-02-21 13:42:00,
2013-02-21 05:52:00,20.0,20.0,-100.00,North,-999,-999.0,-999.0,98,-99.99,,,-99.99,,2013-02-21 13:52:00,
2013-02-21 06:02:00,20.0,20.0,-100.00,North,-999,-999.0,-999.0,98,-99.99,,,-99.99,,2013-02-21 14:02:00,
2013-02-21 06:11:00,20.0,20.0,-100.00,North,-999,-999.0,-999.0,98,-99.99,,,-99.99,,2013-02-21 14:11:00,
2013-02-21 06:21:00,20.0,20.0,-100.00,North,-999,-999.0,-999.0,98,-99.99,,,-99.99,,2013-02-21 14:21:00,
2013-02-21 06:31:00,19.0,19.0,-100.00,North,-999,-999.0,-999.0,99,-99.99,,,-99.99,,2013-02-21 14:31:00,
2013-02-21 06:42:00,19.0,19.0,-100.00,North,-999,-999.0,-999.0,99,-99.99,,,-99.99,,2013-02-21 14:42:00,
2013-02-21 06:52:00,19.0,19.0,-100.00,North,-999,-999.0,-999.0,99,-99.99,,,-99.99,,2013-02-21 14:52:00,
2013-02-21 07:01:00,19.0,19.0,-100.00,North,-999,-999.0,-999.0,99,-99.99,,,-99.99,,2013-02-21 15:01:00,
2013-02-21 07:32:00,18.0,18.0,-100.00,North,-999,-999.0,-999.0,99,-99.99,,,-99.99,,2013-02-21 15:32:00,
2013-02-21 07:42:00,18.0,18.0,-100.00,North,-999,-999.0,-999.0,99,-99.99,,,-99.99,,2013-02-21 15:42:00,
2013-02-21 07:52:00,18.0,18.0,-100.00,North,-999,-999.0,-999.0,99,-99.99,,,-99.99,,2013-02-21 15:52:00,
2013-02-21 08:01:00,19.0,19.0,-100.00,North,-999,-999.0,-999.0,100,-99.99,,,-99.99,,2013-02-21 16:01:00,
2013-02-21 08:12:00,19.0,19.0,-100.00,North,-999,-999.0,-999.0,100,-99.99,,,-99.99,,2013-02-21 16:12:00,
2013-02-21 08:21:00,19.0,19.0,-100.00,North,-999,-999.0,-999.0,100,-99.99,,,-99.99,,2013-02-21 16:21:00,
2013-02-21 08:31:00,31.0,24.0,-100.00,North,-999,-999.0,-999.0,74,-99.99,,,-99.99,,2013-02-21 16:31:00,
2013-02-21 08:42:00,31.0,24.0,-100.00,North,-999,-999.0,-999.0,74,-99.99,,,-99.99,,2013-02-21 16:42:00,
2013-02-21 08:52:00,38.0,27.0,-100.00,North,-999,-999.0,-999.0,64,-99.99,,,-99.99,,2013-02-21 16:52:00,
2013-02-21 09:01:00,38.0,27.0,-100.00,North,-999,-999.0,-999.0,64,-99.99,,,-99.99,,2013-02-21 17:01:00,
2013-02-21 09:11:00,38.0,27.0,-100.00,North,-999,-999.0,-999.0,64,-99.99,,,-99.99,,2013-02-21 17:11:00,
2013-02-21 09:21:00,38.0,27.0,-100.00,North,-999,-999.0,-999.0,64,-99.99,,,-99.99,,2013-02-21 17:21:00,
2013-02-21 09:32:00,47.0,27.0,-100.00,North,-999,-999.0,-999.0,46,-99.99,,,-99.99,,2013-02-21 17:32:00,
2013-02-21 09:42:00,47.0,27.0,-100.00,North,-999,-999.0,-999.0,46,-99.99,,,-99.99,,2013-02-21 17:42:00,
2013-02-21 09:52:00,47.0,27.0,-100.00,North,-999,-999.0,-999.0,46,-99.99,,,-99.99,,2013-02-21 17:52:00,
2013-02-21 10:01:00,46.0,25.0,-100.00,North,-999,-999.0,-999.0,44,-99.99,,,-99.99,,2013-02-21 18:01:00,
2013-02-21 10:11:00,46.0,25.0,-100.00,North,-999,-999.0,-999.0,44,-99.99,,,-99.99,,2013-02-21 18:11:00,
2013-02-21 10:22:00,46.0,25.0,-100.00,North,-999,-999.0,-999.0,44,-99.99,,,-99.99,,2013-02-21 18:22:00,
2013-02-21 10:31:00,46.0,25.0,-100.00,North,-999,-999.0,-999.0,44,-99.99,,,-99.99,,2013-02-21 18:31:00,
2013-02-21 11:01:00,49.0,32.0,-100.00,North,-999,-999.0,-999.0,51,-99.99,,,-99.99,,2013-02-21 19:01:00,
2013-02-21 11:11:00,49.0,32.0,-100.00,North,-999,-999.0,-999.0,51,-99.99,,,-99.99,,2013-02-21 19:11:00,
2013-02-21 11:21:00,49.0,32.0,-100.00,North,-999,-999.0,-999.0,51,-99.99,,,-99.99,,2013-02-21 19:21:00,
2013-02-21 11:31:00,51.0,28.0,-100.00,North,-999,-999.0,-999.0,40,-99.99,,,-99.99,,2013-02-21 19:31:00,
2013-02-21 11:42:00,51.0,28.0,-100.00,North,-999,-999.0,-999.0,40,-99.99,,,-99.99,,2013-02-21 19:42:00,
2013-02-21 11:52:00,51.0,28.0,-100.00,North,-999,-999.0,-999.0,40,-99.99,,,-99.99,,2013-02-21 19:52:00,
2013-02-21 12:01:00,51.0,28.0,-100.00,North,-999,-999.0,-999.0,40,-99.99,,,-99.99,,2013-02-21 20:01:00,
2013-02-21 12:32:00,52.0,28.0,-100.00,North,-999,-999.0,-999.0,39,-99.99,,,-99.99,,2013-02-21 20:32:00,
2013-02-21 12:42:00,52.0,28.0,-100.00,North,-999,-999.0,-999.0,39,-99.99,,,-99.99,,2013-02-21 20:42:00,
2013-02-21 12:52:00,52.0,28.0,-100.00,North,-999,-999.0,-999.0,39,-99.99,,,-99.99,,2013-02-21 20:52:00,
2013-02-21 13:02:00,52.0,28.0,-100.00,North,-999,-999.0,-999.0,39,-99.99,,,-99.99,,2013-02-21 21:02:00,
2013-02-21 13:32:00,49.0,23.0,-100.00,North,-999,-999.0,-999.0,35,-99.99,,,-99.99,,2013-02-21 21:32:00,
2013-02-21 13:42:00,49.0,23.0,-100.00,North,-999,-999.0,-999.0,35,-99.99,,,-99.99,,2013-02-21 21:42:00,
2013-02-21 13:52:00,49.0,23.0,-100.00,North,-999,-999.0,-999.0,35,-99.99,,,-99.99,,2013-02-21 21:52:00,
2013-02-21 14:01:00,49.0,23.0,-100.00,North,-999,-999.0,-999.0,35,-99.99,,,-99.99,,2013-02-21 22:01:00,
2013-02-21 14:32:00,51.0,18.0,-100.00,North,-999,-999.0,-999.0,27,-99.99,,,-99.99,,2013-02-21 22:32:00,
2013-02-21 14:42:00,51.0,18.0,-100.00,North,-999,-999.0,-999.0,27,-99.99,,,-99.99,,2013-02-21 22:42:00,
2013-02-21 14:52:00,51.0,18.0,-100.00,North,-999,-999.0,-999.0,27,-99.99,,,-99.99,,2013-02-21 22:52:00,
2013-02-21 15:01:00,52.0,19.0,-100.00,North,-999,-999.0,-999.0,27,-99.99,,,-99.99,,2013-02-21 23:01:00,
2013-02-21 15:11:00,52.0,19.0,-100.00,North,-999,-999.0,-999.0,27,-99.99,,,-99.99,,2013-02-21 23:11:00,
2013-02-21 15:21:00,52.0,19.0,-100.00,North,-999,-999.0,-999.0,27,-99.99,,,-99.99,,2013-02-21 23:21:00,
2013-02-21 15:31:00,52.0,20.0,-100.00,North,-999,-999.0,-999.0,28,-99.99,,,-99.99,,2013-02-21 23:31:00,
2013-02-21 15:42:00,52.0,20.0,-100.00,North,-999,-999.0,-999.0,28,-99.99,,,-99.99,,2013-02-21 23:42:00,
2013-02-21 15:52:00,53.0,21.0,-100.00,North,-999,-999.0,-999.0,28,-99.99,,,-99.99,,2013-02-21 23:52:00,
2013-02-21 16:01:00,53.0,21.0,-100.00,North,-999,-999.0,-999.0,28,-99.99,,,-99.99,,2013-02-22 00:01:00,
2013-02-21 16:11:00,53.0,21.0,-100.00,North,-999,-999.0,-999.0,28,-99.99,,,-99.99,,2013-02-22 00:11:00,
2013-02-21 16:21:00,53.0,21.0,-100.00,North,-999,-999.0,-999.0,28,-99.99,,,-99.99,,2013-02-22 00:21:00,
2013-02-21 16:31:00,51.0,21.0,-100.00,North,-999,-999.0,-999.0,30,-99.99,,,-99.99,,2013-02-22 00:31:00,
2013-02-21 16:42:00,51.0,21.0,-100.00,North,-999,-999.0,-999.0,30,-99.99,,,-99.99,,2013-02-22 00:42:00,
2013-02-21 16:52:00,51.0,21.0,-100.00,North,-999,-999.0,-999.0,30,-99.99,,,-99.99,,2013-02-22 00:52:00,
2013-02-21 17:01:00,51.0,21.0,-100.00,North,-999,-999.0,-999.0,30,-99.99,,,-99.99,,2013-02-22 01:01:00,
2013-02-21 17:32:00,47.0,31.0,-100.00,North,-999,-999.0,-999.0,54,-99.99,,,-99.99,,2013-02-22 01:32:00,
2013-02-21 17:42:00,47.0,31.0,-100.00,North,-999,-999.0,-999.0,54,-99.99,,,-99.99,,2013-02-22 01:42:00,
2013-02-21 17:52:00,47.0,31.0,-100.00,North,-999,-999.0,-999.0,54,-99.99,,,-99.99,,2013-02-22 01:52:00,
2013-02-21 18:01:00,43.0,34.0,-100.00,North,-999,-999.0,-999.0,70,-99.99,,,-99.99,,2013-02-22 02:01:00,
2013-02-21 18:11:00,43.0,34.0,-100.00,North,-999,-999.0,-999.0,70,-99.99,,,-99.99,,2013-02-22 02:11:00,
2013-02-21 18:21:00,43.0,34.0,-100.00,North,-999,-999.0,-999.0,70,-99.99,,,-99.99,,2013-02-22 02:21:00,
2013-02-21 18:31:00,41.0,31.0,-100.00,North,-999,-999.0,-999.0,68,-99.99,,,-99.99,,2013-02-22 02:31:00,
2013-02-21 18:42:00,41.0,31.0,-100.00,North,-999,-999.0,-999.0,68,-99.99,,,-99.99,,2013-02-22 02:42:00,
2013-02-21 18:52:00,41.0,31.0,-100.00,North,-999,-999.0,-999.0,68,-99.99,,,-99.99,,2013-02-22 02:52:00,
2013-02-21 19:01:00,37.0,30.0,-100.00,North,-999,-999.0,-999.0,75,-99.99,,,-99.99,,2013-02-22 03:01:00,
2013-02-21 19:11:00,37.0,30.0,-100.00,North,-999,-999.0,-999.0,75,-99.99,,,-99.99,,2013-02-22 03:11:00,
2013-02-21 19:21:00,37.0,30.0,-100.00,North,-999,-999.0,-999.0,75,-99.99,,,-99.99,,2013-02-22 03:21:00,
2013-02-21 19:31:00,35.0,28.0,-100.00,North,-999,-999.0,-999.0,75,-99.99,,,-99.99,,2013-02-22 03:31:00,
2013-02-21 19:42:00,35.0,28.0,-100.00,North,-999,-999.0,-999.0,75,-99.99,,,-99.99,,2013-02-22 03:42:00,
2013-02-21 19:52:00,35.0,28.0,-100.00,North,-999,-999.0,-999.0,75,-99.99,,,-99.99,,2013-02-22 03:52:00,
2013-02-21 20:01:00,34.0,28.0,-100.00,North,-999,-999.0,-999.0,77,-99.99,,,-99.99,,2013-02-22 04:01:00,
2013-02-21 20:11:00,34.0,28.0,-100.00,North,-999,-999.0,-999.0,77,-99.99,,,-99.99,,2013-02-22 04:11:00,
2013-02-21 20:21:00,34.0,28.0,-100.00,North,-999,-999.0,-999.0,77,-99.99,,,-99.99,,2013-02-22 04:21:00,
2013-02-21 20:31:00,32.0,27.0,-100.00,North,-999,-999.0,-999.0,81,-99.99,,,-99.99,,2013-02-22 04:31:00,
2013-02-21 20:42:00,32.0,27.0,-100.00,North,-999,-999.0,-999.0,81,-99.99,,,-99.99,,2013-02-22 04:42:00,
2013-02-21 20:51:00,32.0,27.0,-100.00,North,-999,-999.0,-999.0,81,-99.99,,,-99.99,,2013-02-22 04:51:00,
2013-02-21 21:01:00,29.0,25.0,-100.00,North,-999,-999.0,-999.0,86,-99.99,,,-99.99,,2013-02-22 05:01:00,
2013-02-21 21:11:00,29.0,25.0,-100.00,North,-999,-999.0,-999.0,86,-99.99,,,-99.99,,2013-02-22 05:11:00,
2013-02-21 21:22:00,29.0,25.0,-100.00,North,-999,-999.0,-999.0,86,-99.99,,,-99.99,,2013-02-22 05:22:00,
2013-02-21 21:32:00,28.0,24.0,-100.00,North,-999,-999.0,-999.0,86,-99.99,,,-99.99,,2013-02-22 05:32:00,
2013-02-21 21:42:00,28.0,24.0,-100.00,North,-999,-999.0,-999.0,86,-99.99,,,-99.99,,2013-02-22 05:42:00,
2013-02-21 21:52:00,28.0,24.0,-100.00,North,-999,-999.0,-999.0,86,-99.99,,,-99.99,,2013-02-22 05:52:00,
2013-02-21 22:01:00,27.0,24.0,-100.00,North,-999,-999.0,-999.0,88,-99.99,,,-99.99,,2013-02-22 06:01:00,
2013-02-21 23:01:00,24.0,22.0,-100.00,North,-999,-999.0,-999.0,93,-99.99,,,-99.99,,2013-02-22 07:01:00,
2013-02-21 23:11:00,24.0,22.0,-100.00,North,-999,-999.0,-999.0,93,-99.99,,,-99.99,,2013-02-22 07:11:00,
2013-02-21 23:21:00,24.0,22.0,-100.00,North,-999,-999.0,-999.0,93,-99.99,,,-99.99,,2013-02-22 07:21:00,
2013-02-21 23:31:00,23.0,22.0,-100.00,North,-999,-999.0,-999.0,96,-99.99,,,-99.99,,2013-02-22 07:31:00,
2013-02-21 23:42:00,23.0,22.0,-100.00,North,-999,-999.0,-999.0,96,-99.99,,,-99.99,,2013-02-22 07:42:00,
2013-02-21 23:52:00,23.0,22.0,-100.00,North,-999,-999.0,-999.0,96,-99.99,,,-99.99,,2013-02-22 07:52:00,